Terminal Aerodrome Forecast
Issued by NWS Cleveland, OH

Home | Current Version | Previous Version | Graphics & Text | Print | Product List | Glossary On
Versions: 1 2 3 4 5 6 7 8 9 10 11 12 13 14 15 16 17
000
FTUS41 KCLE 031301 AAA
TAFYNG
TAF AMD
KYNG 031301Z 0313/0412 03005KT 6SM BR SCT004 OVC010
      TEMPO 0313/0314 BKN004
     FM031500 01006KT P6SM BKN060
     FM040400 VRB03KT P6SM SCT250
     FM041000 VRB03KT P6SM BKN100=

USA.gov is the U.S. government's official web portal to all federal, state and local government web resources and services.